sensor_id;sensor_type;location;lat;lon;timestamp;P1;durP1;ratioP1;P2;durP2;ratioP2
21110;SDS011;10713;51.912;4.494;2023-06-26T00:02:09;8.10;;;4.07;;
21110;SDS011;10713;51.912;4.494;2023-06-26T00:04:36;7.55;;;4.10;;
21110;SDS011;10713;51.912;4.494;2023-06-26T00:07:03;7.15;;;3.85;;
21110;SDS011;10713;51.912;4.494;2023-06-26T00:09:29;6.40;;;3.92;;
21110;SDS011;10713;51.912;4.494;2023-06-26T00:11:55;7.63;;;3.58;;
21110;SDS011;10713;51.912;4.494;2023-06-26T00:14:20;7.95;;;4.13;;
21110;SDS011;10713;51.912;4.494;2023-06-26T00:16:46;5.65;;;3.63;;
21110;SDS011;10713;51.912;4.494;2023-06-26T00:19:14;6.50;;;2.97;;
21110;SDS011;10713;51.912;4.494;2023-06-26T00:21:40;8.30;;;3.20;;
21110;SDS011;10713;51.912;4.494;2023-06-26T00:24:05;6.10;;;3.50;;
21110;SDS011;10713;51.912;4.494;2023-06-26T00:26:31;7.63;;;3.47;;
21110;SDS011;10713;51.912;4.494;2023-06-26T00:28:56;7.28;;;3.25;;
21110;SDS011;10713;51.912;4.494;2023-06-26T00:31:21;6.47;;;3.40;;
21110;SDS011;10713;51.912;4.494;2023-06-26T00:33:47;6.65;;;2.88;;
21110;SDS011;10713;51.912;4.494;2023-06-26T00:36:12;6.72;;;2.80;;
21110;SDS011;10713;51.912;4.494;2023-06-26T00:38:37;7.45;;;2.88;;
21110;SDS011;10713;51.912;4.494;2023-06-26T00:41:03;7.75;;;3.00;;
21110;SDS011;10713;51.912;4.494;2023-06-26T00:43:28;7.55;;;3.20;;
21110;SDS011;10713;51.912;4.494;2023-06-26T00:45:53;8.23;;;3.33;;
21110;SDS011;10713;51.912;4.494;2023-06-26T00:48:19;8.40;;;2.78;;
21110;SDS011;10713;51.912;4.494;2023-06-26T00:50:44;9.45;;;2.83;;
21110;SDS011;10713;51.912;4.494;2023-06-26T00:53:10;9.30;;;2.83;;
21110;SDS011;10713;51.912;4.494;2023-06-26T00:55:36;6.88;;;2.85;;
21110;SDS011;10713;51.912;4.494;2023-06-26T00:58:01;7.93;;;3.03;;
21110;SDS011;10713;51.912;4.494;2023-06-26T01:00:27;9.43;;;2.72;;
21110;SDS011;10713;51.912;4.494;2023-06-26T01:02:53;10.80;;;3.05;;
21110;SDS011;10713;51.912;4.494;2023-06-26T01:05:18;6.00;;;2.88;;
21110;SDS011;10713;51.912;4.494;2023-06-26T01:07:49;8.27;;;3.17;;
21110;SDS011;10713;51.912;4.494;2023-06-26T01:10:15;6.43;;;2.92;;
21110;SDS011;10713;51.912;4.494;2023-06-26T01:12:40;11.63;;;3.28;;
21110;SDS011;10713;51.912;4.494;2023-06-26T01:15:06;8.98;;;3.22;;
21110;SDS011;10713;51.912;4.494;2023-06-26T01:17:32;7.05;;;3.30;;
21110;SDS011;10713;51.912;4.494;2023-06-26T01:19:58;10.45;;;3.33;;
21110;SDS011;10713;51.912;4.494;2023-06-26T01:25:12;9.02;;;3.00;;
21110;SDS011;10713;51.912;4.494;2023-06-26T01:27:42;11.95;;;3.38;;
21110;SDS011;10713;51.912;4.494;2023-06-26T01:30:11;10.05;;;3.38;;
21110;SDS011;10713;51.912;4.494;2023-06-26T01:32:37;12.65;;;3.50;;
21110;SDS011;10713;51.912;4.494;2023-06-26T01:35:05;8.80;;;2.92;;
21110;SDS011;10713;51.912;4.494;2023-06-26T01:37:32;9.30;;;3.40;;
21110;SDS011;10713;51.912;4.494;2023-06-26T01:39:57;14.50;;;3.13;;
21110;SDS011;10713;51.912;4.494;2023-06-26T01:42:22;7.32;;;3.47;;
21110;SDS011;10713;51.912;4.494;2023-06-26T01:44:48;8.02;;;3.30;;
21110;SDS011;10713;51.912;4.494;2023-06-26T01:47:14;11.20;;;3.20;;
21110;SDS011;10713;51.912;4.494;2023-06-26T01:49:56;10.00;;;3.15;;
21110;SDS011;10713;51.912;4.494;2023-06-26T01:52:43;11.73;;;3.88;;
21110;SDS011;10713;51.912;4.494;2023-06-26T01:57:58;13.77;;;3.40;;
21110;SDS011;10713;51.912;4.494;2023-06-26T02:00:24;9.70;;;3.28;;
21110;SDS011;10713;51.912;4.494;2023-06-26T02:02:51;9.90;;;3.00;;
21110;SDS011;10713;51.912;4.494;2023-06-26T02:05:17;8.68;;;3.17;;
21110;SDS011;10713;51.912;4.494;2023-06-26T02:07:42;8.93;;;3.30;;
21110;SDS011;10713;51.912;4.494;2023-06-26T02:10:08;20.58;;;3.90;;
21110;SDS011;10713;51.912;4.494;2023-06-26T02:12:34;9.52;;;3.78;;
21110;SDS011;10713;51.912;4.494;2023-06-26T02:15:01;11.85;;;3.60;;
21110;SDS011;10713;51.912;4.494;2023-06-26T02:17:26;10.52;;;3.58;;
21110;SDS011;10713;51.912;4.494;2023-06-26T02:19:52;14.07;;;3.83;;
21110;SDS011;10713;51.912;4.494;2023-06-26T02:22:17;8.90;;;3.03;;
21110;SDS011;10713;51.912;4.494;2023-06-26T02:24:43;9.02;;;3.20;;
21110;SDS011;10713;51.912;4.494;2023-06-26T02:27:08;11.30;;;3.67;;
21110;SDS011;10713;51.912;4.494;2023-06-26T02:29:35;11.90;;;2.80;;
21110;SDS011;10713;51.912;4.494;2023-06-26T02:32:01;9.18;;;3.25;;
21110;SDS011;10713;51.912;4.494;2023-06-26T02:34:26;10.98;;;3.38;;
21110;SDS011;10713;51.912;4.494;2023-06-26T02:36:52;9.38;;;3.33;;
21110;SDS011;10713;51.912;4.494;2023-06-26T02:39:20;11.27;;;3.33;;
21110;SDS011;10713;51.912;4.494;2023-06-26T02:41:46;9.35;;;2.88;;
21110;SDS011;10713;51.912;4.494;2023-06-26T02:44:11;8.68;;;3.00;;
21110;SDS011;10713;51.912;4.494;2023-06-26T02:46:37;12.38;;;3.03;;
21110;SDS011;10713;51.912;4.494;2023-06-26T02:49:03;9.70;;;2.97;;
21110;SDS011;10713;51.912;4.494;2023-06-26T02:51:28;6.50;;;2.70;;
21110;SDS011;10713;51.912;4.494;2023-06-26T02:53:54;8.50;;;2.97;;
21110;SDS011;10713;51.912;4.494;2023-06-26T02:56:19;12.20;;;3.30;;
21110;SDS011;10713;51.912;4.494;2023-06-26T02:58:44;11.80;;;3.50;;
21110;SDS011;10713;51.912;4.494;2023-06-26T03:01:10;9.13;;;2.80;;
21110;SDS011;10713;51.912;4.494;2023-06-26T03:03:35;10.43;;;3.20;;
21110;SDS011;10713;51.912;4.494;2023-06-26T03:06:05;13.02;;;3.42;;
21110;SDS011;10713;51.912;4.494;2023-06-26T03:08:36;10.90;;;3.00;;
21110;SDS011;10713;51.912;4.494;2023-06-26T03:11:02;10.95;;;2.97;;
21110;SDS011;10713;51.912;4.494;2023-06-26T03:13:28;13.45;;;3.70;;
21110;SDS011;10713;51.912;4.494;2023-06-26T03:15:53;8.70;;;3.05;;
21110;SDS011;10713;51.912;4.494;2023-06-26T03:18:18;9.43;;;3.15;;
21110;SDS011;10713;51.912;4.494;2023-06-26T03:20:44;8.80;;;3.20;;
21110;SDS011;10713;51.912;4.494;2023-06-26T03:23:09;14.32;;;3.50;;
21110;SDS011;10713;51.912;4.494;2023-06-26T03:25:34;10.35;;;3.17;;
21110;SDS011;10713;51.912;4.494;2023-06-26T03:28:00;11.50;;;3.00;;
21110;SDS011;10713;51.912;4.494;2023-06-26T03:30:25;6.95;;;2.63;;
21110;SDS011;10713;51.912;4.494;2023-06-26T03:32:50;12.57;;;3.38;;
21110;SDS011;10713;51.912;4.494;2023-06-26T03:35:16;15.93;;;3.63;;
21110;SDS011;10713;51.912;4.494;2023-06-26T03:37:41;12.18;;;3.42;;
21110;SDS011;10713;51.912;4.494;2023-06-26T03:40:07;8.50;;;3.08;;
21110;SDS011;10713;51.912;4.494;2023-06-26T03:42:33;10.85;;;3.17;;
21110;SDS011;10713;51.912;4.494;2023-06-26T03:44:58;10.00;;;3.13;;
21110;SDS011;10713;51.912;4.494;2023-06-26T03:47:23;8.27;;;3.08;;
21110;SDS011;10713;51.912;4.494;2023-06-26T03:49:49;16.33;;;3.58;;
21110;SDS011;10713;51.912;4.494;2023-06-26T03:52:14;10.95;;;3.40;;
21110;SDS011;10713;51.912;4.494;2023-06-26T03:54:39;10.43;;;3.58;;
21110;SDS011;10713;51.912;4.494;2023-06-26T03:57:05;16.02;;;3.88;;
21110;SDS011;10713;51.912;4.494;2023-06-26T03:59:30;10.32;;;3.05;;
21110;SDS011;10713;51.912;4.494;2023-06-26T04:01:56;9.27;;;3.10;;
21110;SDS011;10713;51.912;4.494;2023-06-26T04:04:21;8.88;;;3.13;;
21110;SDS011;10713;51.912;4.494;2023-06-26T04:06:47;8.70;;;2.95;;
21110;SDS011;10713;51.912;4.494;2023-06-26T04:09:12;10.38;;;3.08;;
21110;SDS011;10713;51.912;4.494;2023-06-26T04:11:37;7.28;;;2.90;;
21110;SDS011;10713;51.912;4.494;2023-06-26T04:14:03;13.50;;;3.05;;
21110;SDS011;10713;51.912;4.494;2023-06-26T04:16:28;11.52;;;3.80;;
21110;SDS011;10713;51.912;4.494;2023-06-26T04:18:53;13.23;;;3.03;;
21110;SDS011;10713;51.912;4.494;2023-06-26T04:21:21;6.38;;;2.83;;
21110;SDS011;10713;51.912;4.494;2023-06-26T04:23:46;13.32;;;2.85;;
21110;SDS011;10713;51.912;4.494;2023-06-26T04:26:12;8.57;;;2.72;;
21110;SDS011;10713;51.912;4.494;2023-06-26T04:28:39;11.18;;;2.92;;
21110;SDS011;10713;51.912;4.494;2023-06-26T04:31:05;7.72;;;2.70;;
21110;SDS011;10713;51.912;4.494;2023-06-26T04:33:30;5.93;;;2.42;;
21110;SDS011;10713;51.912;4.494;2023-06-26T04:35:56;5.47;;;2.85;;
21110;SDS011;10713;51.912;4.494;2023-06-26T04:38:22;10.07;;;2.38;;
21110;SDS011;10713;51.912;4.494;2023-06-26T04:40:48;4.70;;;2.28;;
21110;SDS011;10713;51.912;4.494;2023-06-26T04:43:14;5.10;;;2.25;;
21110;SDS011;10713;51.912;4.494;2023-06-26T04:45:39;5.57;;;2.50;;
21110;SDS011;10713;51.912;4.494;2023-06-26T04:48:05;4.88;;;2.33;;
21110;SDS011;10713;51.912;4.494;2023-06-26T04:50:30;5.25;;;2.17;;
21110;SDS011;10713;51.912;4.494;2023-06-26T04:52:56;6.15;;;2.42;;
21110;SDS011;10713;51.912;4.494;2023-06-26T04:55:23;9.02;;;2.65;;
21110;SDS011;10713;51.912;4.494;2023-06-26T04:57:49;5.85;;;2.85;;
21110;SDS011;10713;51.912;4.494;2023-06-26T05:00:15;2.92;;;2.00;;
21110;SDS011;10713;51.912;4.494;2023-06-26T05:02:40;8.45;;;2.55;;
21110;SDS011;10713;51.912;4.494;2023-06-26T05:05:06;10.80;;;2.70;;
21110;SDS011;10713;51.912;4.494;2023-06-26T05:07:31;5.20;;;2.25;;
21110;SDS011;10713;51.912;4.494;2023-06-26T05:09:57;5.85;;;2.65;;
21110;SDS011;10713;51.912;4.494;2023-06-26T05:12:22;6.57;;;2.50;;
21110;SDS011;10713;51.912;4.494;2023-06-26T05:14:47;4.22;;;1.92;;
21110;SDS011;10713;51.912;4.494;2023-06-26T05:17:15;3.17;;;1.83;;
21110;SDS011;10713;51.912;4.494;2023-06-26T05:19:41;7.95;;;2.40;;
21110;SDS011;10713;51.912;4.494;2023-06-26T05:22:06;3.28;;;1.92;;
21110;SDS011;10713;51.912;4.494;2023-06-26T05:24:35;5.50;;;2.13;;
21110;SDS011;10713;51.912;4.494;2023-06-26T05:27:03;4.40;;;2.38;;
21110;SDS011;10713;51.912;4.494;2023-06-26T05:29:30;5.32;;;2.13;;
21110;SDS011;10713;51.912;4.494;2023-06-26T05:31:56;5.53;;;1.80;;
21110;SDS011;10713;51.912;4.494;2023-06-26T05:34:22;4.75;;;1.58;;
21110;SDS011;10713;51.912;4.494;2023-06-26T05:36:49;5.50;;;1.40;;
21110;SDS011;10713;51.912;4.494;2023-06-26T05:39:16;4.75;;;1.30;;
21110;SDS011;10713;51.912;4.494;2023-06-26T05:41:43;5.03;;;1.40;;
21110;SDS011;10713;51.912;4.494;2023-06-26T05:44:09;5.25;;;1.75;;
21110;SDS011;10713;51.912;4.494;2023-06-26T05:46:35;7.60;;;1.55;;
21110;SDS011;10713;51.912;4.494;2023-06-26T05:49:00;5.00;;;1.40;;
21110;SDS011;10713;51.912;4.494;2023-06-26T05:51:26;7.55;;;1.50;;
21110;SDS011;10713;51.912;4.494;2023-06-26T05:53:52;5.95;;;1.33;;
21110;SDS011;10713;51.912;4.494;2023-06-26T05:56:18;3.78;;;1.10;;
21110;SDS011;10713;51.912;4.494;2023-06-26T05:58:44;4.30;;;1.23;;
21110;SDS011;10713;51.912;4.494;2023-06-26T06:01:10;3.78;;;1.27;;
21110;SDS011;10713;51.912;4.494;2023-06-26T06:03:36;3.85;;;1.17;;
21110;SDS011;10713;51.912;4.494;2023-06-26T06:06:01;3.30;;;1.20;;
21110;SDS011;10713;51.912;4.494;2023-06-26T06:08:26;4.28;;;1.27;;
21110;SDS011;10713;51.912;4.494;2023-06-26T06:10:52;4.00;;;1.10;;
21110;SDS011;10713;51.912;4.494;2023-06-26T06:13:18;5.88;;;1.63;;
21110;SDS011;10713;51.912;4.494;2023-06-26T06:15:43;4.55;;;1.13;;
21110;SDS011;10713;51.912;4.494;2023-06-26T06:18:08;4.00;;;1.20;;
21110;SDS011;10713;51.912;4.494;2023-06-26T06:20:34;3.97;;;1.40;;
21110;SDS011;10713;51.912;4.494;2023-06-26T06:23:00;2.40;;;1.25;;
21110;SDS011;10713;51.912;4.494;2023-06-26T06:25:25;2.57;;;0.80;;
21110;SDS011;10713;51.912;4.494;2023-06-26T06:27:51;2.80;;;0.90;;
21110;SDS011;10713;51.912;4.494;2023-06-26T06:30:16;2.17;;;1.00;;
21110;SDS011;10713;51.912;4.494;2023-06-26T06:32:42;8.60;;;1.55;;
21110;SDS011;10713;51.912;4.494;2023-06-26T06:35:07;5.70;;;1.30;;
21110;SDS011;10713;51.912;4.494;2023-06-26T06:37:36;6.38;;;1.25;;
21110;SDS011;10713;51.912;4.494;2023-06-26T06:40:06;4.50;;;1.13;;
21110;SDS011;10713;51.912;4.494;2023-06-26T06:42:33;3.15;;;1.10;;
21110;SDS011;10713;51.912;4.494;2023-06-26T06:44:59;3.88;;;1.23;;
21110;SDS011;10713;51.912;4.494;2023-06-26T06:47:24;2.63;;;0.88;;
21110;SDS011;10713;51.912;4.494;2023-06-26T06:49:50;3.07;;;1.10;;
21110;SDS011;10713;51.912;4.494;2023-06-26T06:52:15;8.27;;;1.33;;
21110;SDS011;10713;51.912;4.494;2023-06-26T06:55:13;2.87;;;1.03;;
21110;SDS011;10713;51.912;4.494;2023-06-26T06:57:34;5.10;;;1.38;;
21110;SDS011;10713;51.912;4.494;2023-06-26T07:00:06;3.60;;;0.95;;
21110;SDS011;10713;51.912;4.494;2023-06-26T07:02:36;2.40;;;1.00;;
21110;SDS011;10713;51.912;4.494;2023-06-26T07:05:03;1.90;;;0.88;;
21110;SDS011;10713;51.912;4.494;2023-06-26T07:07:29;5.10;;;1.45;;
21110;SDS011;10713;51.912;4.494;2023-06-26T07:10:06;3.53;;;1.23;;
21110;SDS011;10713;51.912;4.494;2023-06-26T07:12:33;2.60;;;1.27;;
21110;SDS011;10713;51.912;4.494;2023-06-26T07:15:03;5.00;;;1.30;;
21110;SDS011;10713;51.912;4.494;2023-06-26T07:17:30;2.28;;;1.08;;
21110;SDS011;10713;51.912;4.494;2023-06-26T07:19:56;2.72;;;0.90;;
21110;SDS011;10713;51.912;4.494;2023-06-26T07:22:21;2.83;;;0.90;;
21110;SDS011;10713;51.912;4.494;2023-06-26T07:24:47;3.22;;;1.20;;
21110;SDS011;10713;51.912;4.494;2023-06-26T07:27:15;2.03;;;1.20;;
21110;SDS011;10713;51.912;4.494;2023-06-26T07:29:42;5.35;;;1.20;;
21110;SDS011;10713;51.912;4.494;2023-06-26T07:32:08;3.00;;;1.33;;
21110;SDS011;10713;51.912;4.494;2023-06-26T07:34:33;4.32;;;1.35;;
21110;SDS011;10713;51.912;4.494;2023-06-26T07:36:59;4.78;;;1.30;;
21110;SDS011;10713;51.912;4.494;2023-06-26T07:39:24;3.03;;;1.33;;
21110;SDS011;10713;51.912;4.494;2023-06-26T07:41:50;4.73;;;1.30;;
21110;SDS011;10713;51.912;4.494;2023-06-26T07:44:15;2.00;;;1.07;;
21110;SDS011;10713;51.912;4.494;2023-06-26T07:46:40;4.32;;;1.38;;
21110;SDS011;10713;51.912;4.494;2023-06-26T07:49:06;4.47;;;1.30;;
21110;SDS011;10713;51.912;4.494;2023-06-26T07:51:31;4.07;;;1.33;;
21110;SDS011;10713;51.912;4.494;2023-06-26T07:53:57;2.40;;;1.02;;
21110;SDS011;10713;51.912;4.494;2023-06-26T07:56:22;4.50;;;1.20;;
21110;SDS011;10713;51.912;4.494;2023-06-26T07:58:48;2.78;;;1.30;;
21110;SDS011;10713;51.912;4.494;2023-06-26T08:01:13;3.37;;;1.30;;
21110;SDS011;10713;51.912;4.494;2023-06-26T08:03:38;3.20;;;1.30;;
21110;SDS011;10713;51.912;4.494;2023-06-26T08:06:05;2.55;;;1.05;;
21110;SDS011;10713;51.912;4.494;2023-06-26T08:08:30;6.20;;;1.33;;
21110;SDS011;10713;51.912;4.494;2023-06-26T08:10:55;5.88;;;1.10;;
21110;SDS011;10713;51.912;4.494;2023-06-26T08:13:21;2.17;;;1.00;;
21110;SDS011;10713;51.912;4.494;2023-06-26T08:15:46;4.40;;;1.33;;
21110;SDS011;10713;51.912;4.494;2023-06-26T08:18:11;3.30;;;1.00;;
21110;SDS011;10713;51.912;4.494;2023-06-26T08:20:37;6.30;;;1.43;;
21110;SDS011;10713;51.912;4.494;2023-06-26T08:23:03;7.18;;;1.50;;
21110;SDS011;10713;51.912;4.494;2023-06-26T08:25:29;4.65;;;1.23;;
21110;SDS011;10713;51.912;4.494;2023-06-26T08:27:54;2.78;;;1.00;;
21110;SDS011;10713;51.912;4.494;2023-06-26T08:30:20;4.32;;;1.27;;
21110;SDS011;10713;51.912;4.494;2023-06-26T08:32:46;4.22;;;1.40;;
21110;SDS011;10713;51.912;4.494;2023-06-26T08:35:11;4.30;;;1.02;;
21110;SDS011;10713;51.912;4.494;2023-06-26T08:37:37;5.35;;;1.60;;
21110;SDS011;10713;51.912;4.494;2023-06-26T08:40:02;2.25;;;1.20;;
21110;SDS011;10713;51.912;4.494;2023-06-26T08:42:30;4.47;;;1.70;;
21110;SDS011;10713;51.912;4.494;2023-06-26T08:44:55;4.03;;;1.48;;
21110;SDS011;10713;51.912;4.494;2023-06-26T08:47:21;4.55;;;1.13;;
21110;SDS011;10713;51.912;4.494;2023-06-26T08:49:47;3.22;;;1.60;;
21110;SDS011;10713;51.912;4.494;2023-06-26T08:52:24;2.63;;;1.00;;
21110;SDS011;10713;51.912;4.494;2023-06-26T08:54:56;3.00;;;1.27;;
21110;SDS011;10713;51.912;4.494;2023-06-26T08:57:24;2.85;;;1.17;;
21110;SDS011;10713;51.912;4.494;2023-06-26T08:59:51;2.88;;;1.15;;
21110;SDS011;10713;51.912;4.494;2023-06-26T09:02:16;7.25;;;1.20;;
21110;SDS011;10713;51.912;4.494;2023-06-26T09:04:42;3.47;;;1.20;;
21110;SDS011;10713;51.912;4.494;2023-06-26T09:07:07;2.10;;;0.98;;
21110;SDS011;10713;51.912;4.494;2023-06-26T09:09:33;8.57;;;1.30;;
21110;SDS011;10713;51.912;4.494;2023-06-26T09:11:58;2.50;;;1.42;;
21110;SDS011;10713;51.912;4.494;2023-06-26T09:14:24;2.25;;;0.98;;
21110;SDS011;10713;51.912;4.494;2023-06-26T09:16:49;6.15;;;1.50;;
21110;SDS011;10713;51.912;4.494;2023-06-26T09:19:15;3.92;;;1.40;;
21110;SDS011;10713;51.912;4.494;2023-06-26T09:21:41;3.15;;;1.20;;
21110;SDS011;10713;51.912;4.494;2023-06-26T09:24:08;5.80;;;1.48;;
21110;SDS011;10713;51.912;4.494;2023-06-26T09:26:37;1.75;;;1.00;;
21110;SDS011;10713;51.912;4.494;2023-06-26T09:29:06;3.90;;;1.23;;
21110;SDS011;10713;51.912;4.494;2023-06-26T09:31:33;4.93;;;1.60;;
21110;SDS011;10713;51.912;4.494;2023-06-26T09:34:01;6.38;;;1.77;;
21110;SDS011;10713;51.912;4.494;2023-06-26T09:36:29;2.33;;;1.53;;
21110;SDS011;10713;51.912;4.494;2023-06-26T09:39:00;3.90;;;1.45;;
21110;SDS011;10713;51.912;4.494;2023-06-26T09:41:27;4.97;;;1.17;;
21110;SDS011;10713;51.912;4.494;2023-06-26T09:43:53;3.63;;;1.10;;
21110;SDS011;10713;51.912;4.494;2023-06-26T09:46:25;2.28;;;1.30;;
21110;SDS011;10713;51.912;4.494;2023-06-26T09:51:34;7.95;;;1.88;;
21110;SDS011;10713;51.912;4.494;2023-06-26T09:54:00;4.35;;;1.63;;
21110;SDS011;10713;51.912;4.494;2023-06-26T09:56:27;5.13;;;1.27;;
21110;SDS011;10713;51.912;4.494;2023-06-26T09:58:57;4.10;;;1.50;;
21110;SDS011;10713;51.912;4.494;2023-06-26T10:01:24;4.68;;;1.67;;
21110;SDS011;10713;51.912;4.494;2023-06-26T10:03:51;4.10;;;1.70;;
21110;SDS011;10713;51.912;4.494;2023-06-26T10:06:22;5.55;;;1.70;;
21110;SDS011;10713;51.912;4.494;2023-06-26T10:08:51;5.30;;;1.42;;
21110;SDS011;10713;51.912;4.494;2023-06-26T10:11:18;4.25;;;1.48;;
21110;SDS011;10713;51.912;4.494;2023-06-26T10:13:47;4.18;;;1.60;;
21110;SDS011;10713;51.912;4.494;2023-06-26T10:16:22;3.25;;;1.40;;
21110;SDS011;10713;51.912;4.494;2023-06-26T10:18:51;4.65;;;1.48;;
21110;SDS011;10713;51.912;4.494;2023-06-26T10:21:19;5.05;;;2.15;;
21110;SDS011;10713;51.912;4.494;2023-06-26T10:23:46;8.77;;;1.67;;
21110;SDS011;10713;51.912;4.494;2023-06-26T10:26:12;2.20;;;1.10;;
21110;SDS011;10713;51.912;4.494;2023-06-26T10:28:39;5.68;;;1.60;;
21110;SDS011;10713;51.912;4.494;2023-06-26T10:31:06;3.58;;;1.63;;
21110;SDS011;10713;51.912;4.494;2023-06-26T10:33:34;4.70;;;1.45;;
21110;SDS011;10713;51.912;4.494;2023-06-26T10:36:16;2.80;;;1.15;;
21110;SDS011;10713;51.912;4.494;2023-06-26T10:38:53;2.35;;;0.90;;
21110;SDS011;10713;51.912;4.494;2023-06-26T10:41:21;3.22;;;1.05;;
21110;SDS011;10713;51.912;4.494;2023-06-26T10:46:17;3.42;;;1.20;;
21110;SDS011;10713;51.912;4.494;2023-06-26T10:48:55;2.05;;;0.95;;
21110;SDS011;10713;51.912;4.494;2023-06-26T10:51:25;2.03;;;0.70;;
21110;SDS011;10713;51.912;4.494;2023-06-26T10:53:53;2.17;;;1.10;;
21110;SDS011;10713;51.912;4.494;2023-06-26T10:56:20;2.50;;;0.98;;
21110;SDS011;10713;51.912;4.494;2023-06-26T10:58:47;1.07;;;0.70;;
21110;SDS011;10713;51.912;4.494;2023-06-26T11:01:46;2.67;;;1.20;;
21110;SDS011;10713;51.912;4.494;2023-06-26T11:04:08;4.80;;;1.25;;
21110;SDS011;10713;51.912;4.494;2023-06-26T11:06:35;2.47;;;0.77;;
21110;SDS011;10713;51.912;4.494;2023-06-26T11:14:25;2.28;;;0.85;;
21110;SDS011;10713;51.912;4.494;2023-06-26T11:16:51;2.42;;;0.80;;
21110;SDS011;10713;51.912;4.494;2023-06-26T11:19:17;3.38;;;0.80;;
21110;SDS011;10713;51.912;4.494;2023-06-26T11:21:44;2.58;;;0.98;;
21110;SDS011;10713;51.912;4.494;2023-06-26T11:24:10;1.85;;;0.80;;
21110;SDS011;10713;51.912;4.494;2023-06-26T11:26:40;2.83;;;0.90;;
21110;SDS011;10713;51.912;4.494;2023-06-26T11:29:07;4.18;;;0.90;;
21110;SDS011;10713;51.912;4.494;2023-06-26T11:31:33;2.00;;;0.70;;
21110;SDS011;10713;51.912;4.494;2023-06-26T11:34:02;3.47;;;0.98;;
21110;SDS011;10713;51.912;4.494;2023-06-26T11:36:29;2.80;;;1.10;;
21110;SDS011;10713;51.912;4.494;2023-06-26T11:41:21;2.72;;;1.17;;
21110;SDS011;10713;51.912;4.494;2023-06-26T11:43:47;3.40;;;1.10;;
21110;SDS011;10713;51.912;4.494;2023-06-26T11:46:12;2.28;;;1.20;;
21110;SDS011;10713;51.912;4.494;2023-06-26T11:48:38;3.85;;;1.27;;
21110;SDS011;10713;51.912;4.494;2023-06-26T11:51:04;1.50;;;0.80;;
21110;SDS011;10713;51.912;4.494;2023-06-26T11:53:30;2.20;;;0.88;;
21110;SDS011;10713;51.912;4.494;2023-06-26T11:55:56;2.17;;;1.00;;
21110;SDS011;10713;51.912;4.494;2023-06-26T11:58:22;2.05;;;0.90;;
21110;SDS011;10713;51.912;4.494;2023-06-26T12:00:47;7.72;;;1.50;;
21110;SDS011;10713;51.912;4.494;2023-06-26T12:03:13;6.30;;;1.10;;
21110;SDS011;10713;51.912;4.494;2023-06-26T12:05:39;3.25;;;1.00;;
21110;SDS011;10713;51.912;4.494;2023-06-26T12:08:05;2.13;;;1.02;;
21110;SDS011;10713;51.912;4.494;2023-06-26T12:10:32;2.40;;;1.00;;
21110;SDS011;10713;51.912;4.494;2023-06-26T12:12:58;3.22;;;1.02;;
21110;SDS011;10713;51.912;4.494;2023-06-26T12:15:26;2.80;;;1.10;;
21110;SDS011;10713;51.912;4.494;2023-06-26T12:17:53;2.35;;;0.82;;
21110;SDS011;10713;51.912;4.494;2023-06-26T12:20:21;4.07;;;1.20;;
21110;SDS011;10713;51.912;4.494;2023-06-26T12:22:47;4.95;;;1.52;;
21110;SDS011;10713;51.912;4.494;2023-06-26T12:25:14;1.63;;;0.95;;
21110;SDS011;10713;51.912;4.494;2023-06-26T12:27:39;4.53;;;1.27;;
21110;SDS011;10713;51.912;4.494;2023-06-26T12:30:05;1.83;;;1.10;;
21110;SDS011;10713;51.912;4.494;2023-06-26T12:32:31;4.65;;;1.10;;
21110;SDS011;10713;51.912;4.494;2023-06-26T12:34:57;5.63;;;1.25;;
21110;SDS011;10713;51.912;4.494;2023-06-26T12:37:23;4.80;;;1.10;;
21110;SDS011;10713;51.912;4.494;2023-06-26T12:39:49;3.08;;;1.17;;
21110;SDS011;10713;51.912;4.494;2023-06-26T12:42:23;1.90;;;1.13;;
21110;SDS011;10713;51.912;4.494;2023-06-26T12:44:49;4.15;;;1.40;;
21110;SDS011;10713;51.912;4.494;2023-06-26T12:47:15;4.35;;;1.00;;
21110;SDS011;10713;51.912;4.494;2023-06-26T12:49:42;7.25;;;1.55;;
21110;SDS011;10713;51.912;4.494;2023-06-26T12:52:15;1.60;;;1.10;;
21110;SDS011;10713;51.912;4.494;2023-06-26T12:54:42;3.13;;;1.13;;
21110;SDS011;10713;51.912;4.494;2023-06-26T12:57:08;3.22;;;1.13;;
21110;SDS011;10713;51.912;4.494;2023-06-26T12:59:35;2.92;;;1.08;;
21110;SDS011;10713;51.912;4.494;2023-06-26T13:02:02;2.58;;;1.13;;
21110;SDS011;10713;51.912;4.494;2023-06-26T13:04:28;5.93;;;1.08;;
21110;SDS011;10713;51.912;4.494;2023-06-26T13:06:54;4.20;;;1.33;;
21110;SDS011;10713;51.912;4.494;2023-06-26T13:09:20;4.72;;;1.40;;
21110;SDS011;10713;51.912;4.494;2023-06-26T13:11:46;5.35;;;1.40;;
21110;SDS011;10713;51.912;4.494;2023-06-26T13:14:12;3.72;;;1.08;;
21110;SDS011;10713;51.912;4.494;2023-06-26T13:16:37;3.25;;;1.27;;
21110;SDS011;10713;51.912;4.494;2023-06-26T13:19:03;2.88;;;0.93;;
21110;SDS011;10713;51.912;4.494;2023-06-26T13:21:29;4.72;;;1.13;;
21110;SDS011;10713;51.912;4.494;2023-06-26T13:23:55;2.33;;;1.35;;
21110;SDS011;10713;51.912;4.494;2023-06-26T13:26:21;3.33;;;1.20;;
21110;SDS011;10713;51.912;4.494;2023-06-26T13:28:47;2.15;;;0.98;;
21110;SDS011;10713;51.912;4.494;2023-06-26T13:31:13;2.63;;;1.50;;
21110;SDS011;10713;51.912;4.494;2023-06-26T13:33:39;2.30;;;1.20;;
21110;SDS011;10713;51.912;4.494;2023-06-26T13:36:04;3.08;;;1.05;;
21110;SDS011;10713;51.912;4.494;2023-06-26T13:38:32;2.88;;;0.98;;
21110;SDS011;10713;51.912;4.494;2023-06-26T13:40:58;8.57;;;1.20;;
21110;SDS011;10713;51.912;4.494;2023-06-26T13:43:25;1.40;;;1.20;;
21110;SDS011;10713;51.912;4.494;2023-06-26T13:45:51;3.63;;;1.15;;
21110;SDS011;10713;51.912;4.494;2023-06-26T13:48:17;9.07;;;1.35;;
21110;SDS011;10713;51.912;4.494;2023-06-26T13:50:42;3.08;;;1.10;;
21110;SDS011;10713;51.912;4.494;2023-06-26T13:53:08;6.57;;;0.90;;
21110;SDS011;10713;51.912;4.494;2023-06-26T13:55:34;3.15;;;1.17;;
21110;SDS011;10713;51.912;4.494;2023-06-26T13:58:00;5.22;;;1.48;;
21110;SDS011;10713;51.912;4.494;2023-06-26T14:00:30;4.68;;;1.10;;
21110;SDS011;10713;51.912;4.494;2023-06-26T14:02:59;3.83;;;1.17;;
21110;SDS011;10713;51.912;4.494;2023-06-26T14:05:25;4.00;;;1.17;;
21110;SDS011;10713;51.912;4.494;2023-06-26T14:07:51;1.88;;;1.30;;
21110;SDS011;10713;51.912;4.494;2023-06-26T14:10:18;2.50;;;1.17;;
21110;SDS011;10713;51.912;4.494;2023-06-26T14:12:44;2.35;;;1.00;;
21110;SDS011;10713;51.912;4.494;2023-06-26T14:15:09;1.45;;;1.00;;
21110;SDS011;10713;51.912;4.494;2023-06-26T14:17:35;1.50;;;1.05;;
21110;SDS011;10713;51.912;4.494;2023-06-26T14:20:00;3.15;;;1.10;;
21110;SDS011;10713;51.912;4.494;2023-06-26T14:22:26;3.45;;;1.30;;
21110;SDS011;10713;51.912;4.494;2023-06-26T14:24:51;3.15;;;1.23;;
21110;SDS011;10713;51.912;4.494;2023-06-26T14:27:16;3.72;;;1.25;;
21110;SDS011;10713;51.912;4.494;2023-06-26T14:29:42;9.20;;;1.60;;
21110;SDS011;10713;51.912;4.494;2023-06-26T14:32:07;2.63;;;0.82;;
21110;SDS011;10713;51.912;4.494;2023-06-26T14:34:33;2.97;;;1.08;;
21110;SDS011;10713;51.912;4.494;2023-06-26T14:36:58;1.85;;;1.20;;
21110;SDS011;10713;51.912;4.494;2023-06-26T14:39:24;3.67;;;1.35;;
21110;SDS011;10713;51.912;4.494;2023-06-26T14:41:49;2.75;;;1.23;;
21110;SDS011;10713;51.912;4.494;2023-06-26T14:44:15;4.57;;;1.38;;
21110;SDS011;10713;51.912;4.494;2023-06-26T14:46:40;1.38;;;1.00;;
21110;SDS011;10713;51.912;4.494;2023-06-26T14:49:07;3.35;;;1.17;;
21110;SDS011;10713;51.912;4.494;2023-06-26T14:51:32;5.47;;;1.92;;
21110;SDS011;10713;51.912;4.494;2023-06-26T14:53:58;2.17;;;0.80;;
21110;SDS011;10713;51.912;4.494;2023-06-26T14:56:24;2.13;;;0.90;;
21110;SDS011;10713;51.912;4.494;2023-06-26T14:58:50;2.45;;;1.05;;
21110;SDS011;10713;51.912;4.494;2023-06-26T15:01:17;3.15;;;1.00;;